createdAt,value
2024-04-22T00:00:09.037Z,69.71
2024-04-22T00:01:10.855Z,69.85
2024-04-22T00:02:12.556Z,68.73
2024-04-22T00:03:14.304Z,69.82
2024-04-22T00:04:16.028Z,69.97
2024-04-22T00:05:17.738Z,69.71
2024-04-22T00:06:19.406Z,68.64
2024-04-22T00:07:21.063Z,69.33
2024-04-22T00:08:22.699Z,69.03
2024-04-22T00:09:24.390Z,67.97
2024-04-22T00:10:26.059Z,67.64
2024-04-22T00:11:27.768Z,67.28
2024-04-22T00:12:32.315Z,67.00
2024-04-22T00:13:35.034Z,66.87
2024-04-22T00:14:36.876Z,66.95
2024-04-22T00:15:38.520Z,65.77
2024-04-22T00:16:40.608Z,66.16
2024-04-22T00:17:42.370Z,66.81
2024-04-22T00:18:44.182Z,66.62
2024-04-22T00:19:45.903Z,66.42
2024-04-22T00:20:47.708Z,66.72
2024-04-22T00:21:49.410Z,67.09
2024-04-22T00:22:51.053Z,66.92
2024-04-22T00:23:52.672Z,66.81
2024-04-22T00:24:54.316Z,66.04
2024-04-22T00:25:55.993Z,65.90
2024-04-22T00:26:57.624Z,65.61
2024-04-22T00:28:01.892Z,65.08
2024-04-22T00:29:03.553Z,65.31
2024-04-22T00:30:06.153Z,65.86
2024-04-22T00:31:07.859Z,65.81
2024-04-22T00:32:09.570Z,64.91
2024-04-22T00:33:11.430Z,64.99
2024-04-22T00:34:13.174Z,65.46
2024-04-22T00:35:14.935Z,66.01
2024-04-22T00:36:16.539Z,65.20
2024-04-22T00:37:18.203Z,64.76
2024-04-22T00:38:19.834Z,65.61
2024-04-22T00:39:21.458Z,65.57
2024-04-22T00:40:23.143Z,65.85
2024-04-22T00:41:24.899Z,65.91
2024-04-22T00:42:26.530Z,66.18
2024-04-22T00:43:30.787Z,66.78
2024-04-22T00:44:32.758Z,66.63
2024-04-22T00:45:34.660Z,67.30
2024-04-22T00:46:36.442Z,67.28
2024-04-22T00:47:38.546Z,66.81
2024-04-22T00:48:40.247Z,67.19
2024-04-22T00:49:42.089Z,67.07
2024-04-22T00:50:44.604Z,67.37
2024-04-22T00:51:46.780Z,67.83
2024-04-22T00:52:48.504Z,67.16
2024-04-22T00:53:50.761Z,67.39
2024-04-22T00:54:52.484Z,68.40
2024-04-22T00:55:56.124Z,68.63
2024-04-22T00:56:57.855Z,69.00
2024-04-22T00:58:04.065Z,69.95
2024-04-22T00:59:08.648Z,69.66
2024-04-22T01:00:11.455Z,71.30
2024-04-22T01:01:13.209Z,71.38
2024-04-22T01:02:15.525Z,71.42
2024-04-22T01:03:17.222Z,71.89
2024-04-22T01:04:20.078Z,71.49
2024-04-22T01:05:21.746Z,71.46
2024-04-22T01:06:23.376Z,71.68
2024-04-22T01:07:25.379Z,72.08
2024-04-22T01:08:27.111Z,72.19
2024-04-22T01:09:28.790Z,71.77
2024-04-22T01:10:32.511Z,71.28
2024-04-22T01:11:34.588Z,70.68
2024-04-22T01:12:36.355Z,70.70
2024-04-22T01:13:38.569Z,71.16
2024-04-22T01:14:42.959Z,71.03
2024-04-22T01:15:44.559Z,71.12
2024-04-22T01:16:53.433Z,71.17
2024-04-22T01:17:55.227Z,71.95
2024-04-22T01:18:56.901Z,72.56
2024-04-22T01:19:58.523Z,72.33
2024-04-22T01:21:00.136Z,72.27
2024-04-22T01:22:04.808Z,72.99
2024-04-22T01:23:06.495Z,72.80
2024-04-22T01:24:08.395Z,73.23
2024-04-22T01:25:10.681Z,72.70
2024-04-22T01:26:13.195Z,71.90
2024-04-22T01:27:15.303Z,71.91
2024-04-22T01:28:16.993Z,71.87
2024-04-22T01:29:18.626Z,72.78
2024-04-22T01:30:20.320Z,72.31
2024-04-22T01:31:21.957Z,72.03
2024-04-22T01:32:23.665Z,72.61
2024-04-22T01:33:25.342Z,73.63
2024-04-22T01:34:26.990Z,74.71
2024-04-22T01:35:28.598Z,74.56
2024-04-22T01:36:30.241Z,74.63
2024-04-22T01:37:34.850Z,74.35
2024-04-22T01:38:36.521Z,75.19
2024-04-22T01:39:38.184Z,74.65
2024-04-22T01:40:39.865Z,74.70
2024-04-22T01:41:41.688Z,74.08
2024-04-22T01:42:43.309Z,74.22
2024-04-22T01:43:45.031Z,73.66
2024-04-22T01:44:46.685Z,73.48
2024-04-22T01:45:48.331Z,74.96
2024-04-22T01:46:50.030Z,74.10
2024-04-22T01:47:51.798Z,73.80
2024-04-22T01:48:53.465Z,73.69
2024-04-22T01:49:55.124Z,74.05
2024-04-22T01:50:56.748Z,74.20
2024-04-22T01:51:58.453Z,74.72
2024-04-22T01:53:02.764Z,74.82
2024-04-22T01:54:04.399Z,74.09
2024-04-22T01:55:09.832Z,74.43
2024-04-22T01:56:12.888Z,74.67
2024-04-22T01:57:14.543Z,75.95
2024-04-22T01:58:16.202Z,75.43
2024-04-22T01:59:18.209Z,75.48
2024-04-22T02:00:19.820Z,76.10
2024-04-22T02:01:21.433Z,76.15
2024-04-22T02:02:23.103Z,76.09
2024-04-22T02:03:24.727Z,75.82
2024-04-22T02:04:26.396Z,76.47
2024-04-22T02:05:28.027Z,76.59
2024-04-22T02:06:29.677Z,76.42
2024-04-22T02:07:31.326Z,76.24
2024-04-22T02:08:35.592Z,75.84
2024-04-22T02:09:37.330Z,75.68
2024-04-22T02:10:39.015Z,75.79
2024-04-22T02:11:40.792Z,76.23
2024-04-22T02:12:42.443Z,77.07
2024-04-22T02:13:44.214Z,76.94
2024-04-22T02:14:45.887Z,76.05
2024-04-22T02:15:47.521Z,75.84
2024-04-22T02:16:49.395Z,75.95
2024-04-22T02:17:51.658Z,75.32
2024-04-22T02:18:54.756Z,74.93
2024-04-22T02:19:56.418Z,75.55
2024-04-22T02:20:58.157Z,75.39
2024-04-22T02:21:59.799Z,75.59
2024-04-22T02:23:02.282Z,76.27
2024-04-22T02:24:06.839Z,76.63
2024-04-22T02:25:08.820Z,77.22
2024-04-22T02:26:10.463Z,77.02
2024-04-22T02:27:12.080Z,77.24
2024-04-22T02:28:13.938Z,76.95
2024-04-22T02:29:15.551Z,76.41
2024-04-22T02:30:17.268Z,77.14
2024-04-22T02:31:19.229Z,77.75
2024-04-22T02:32:20.836Z,78.06
2024-04-22T02:33:22.602Z,78.16
2024-04-22T02:34:24.303Z,78.54
2024-04-22T02:35:25.988Z,77.85
2024-04-22T02:36:27.612Z,77.03
2024-04-22T02:37:29.287Z,77.22
2024-04-22T02:38:31.032Z,77.23
2024-04-22T02:39:35.272Z,77.29
2024-04-22T02:40:37.659Z,76.88
2024-04-22T02:41:40.096Z,76.95
2024-04-22T02:42:41.948Z,77.36
2024-04-22T02:43:43.598Z,77.60
2024-04-22T02:44:45.257Z,77.73
2024-04-22T02:45:46.903Z,78.08
2024-04-22T02:46:48.545Z,77.87
2024-04-22T02:47:50.344Z,78.68
2024-04-22T02:48:52.118Z,79.45
2024-04-22T02:49:53.735Z,79.58
2024-04-22T02:50:55.353Z,80.11
2024-04-22T02:51:56.961Z,80.04
2024-04-22T02:52:58.612Z,79.20
2024-04-22T02:54:00.290Z,79.33
2024-04-22T02:55:04.893Z,80.51
2024-04-22T02:56:07.007Z,80.73
2024-04-22T02:57:08.652Z,80.73
2024-04-22T02:58:10.309Z,81.32
2024-04-22T02:59:11.939Z,80.79
2024-04-22T03:00:14.002Z,80.46
2024-04-22T03:01:15.708Z,80.38
2024-04-22T03:02:17.404Z,80.35
2024-04-22T03:03:19.051Z,80.26
2024-04-22T03:04:20.736Z,79.71
2024-04-22T03:05:22.510Z,79.46
2024-04-22T03:06:24.157Z,79.03
2024-04-22T03:07:26.169Z,79.39
2024-04-22T03:08:27.803Z,79.55
2024-04-22T03:09:29.462Z,78.49
2024-04-22T03:10:37.382Z,78.18
2024-04-22T03:11:39.098Z,78.31
2024-04-22T03:12:40.847Z,78.54
2024-04-22T03:13:42.523Z,79.15
2024-04-22T03:14:44.185Z,80.10
2024-04-22T03:15:46.286Z,80.28
2024-04-22T03:16:48.147Z,80.39
2024-04-22T03:17:50.012Z,79.72
2024-04-22T03:18:51.727Z,79.53
2024-04-22T03:19:53.680Z,80.94
2024-04-22T03:20:55.288Z,81.63
2024-04-22T03:21:56.976Z,82.34
2024-04-22T03:22:58.570Z,82.20
2024-04-22T03:24:00.186Z,82.35
2024-04-22T03:25:01.809Z,82.74
2024-04-22T03:26:06.206Z,83.30
2024-04-22T03:27:08.035Z,83.51
2024-04-22T03:28:09.675Z,83.30
2024-04-22T03:29:11.366Z,83.26
2024-04-22T03:30:13.016Z,83.31
2024-04-22T03:31:14.725Z,83.00
2024-04-22T03:32:16.460Z,83.01
2024-04-22T03:33:18.845Z,83.39
2024-04-22T03:34:20.504Z,82.94
2024-04-22T03:35:22.167Z,82.39
2024-04-22T03:36:23.813Z,82.01
2024-04-22T03:37:25.497Z,82.34
2024-04-22T03:38:27.128Z,82.66
2024-04-22T03:39:28.882Z,83.06
2024-04-22T03:40:30.579Z,83.24
2024-04-22T03:41:34.937Z,83.58
2024-04-22T03:42:36.580Z,83.19
2024-04-22T03:43:38.373Z,82.97
2024-04-22T03:44:40.072Z,82.46
2024-04-22T03:45:41.696Z,82.15
2024-04-22T03:46:43.438Z,81.58
2024-04-22T03:47:45.394Z,81.14
2024-04-22T03:48:47.056Z,80.19
2024-04-22T03:49:48.675Z,80.42
2024-04-22T03:50:50.279Z,81.65
2024-04-22T03:51:51.937Z,82.31
2024-04-22T03:52:53.581Z,82.30
2024-04-22T03:53:55.203Z,82.46
2024-04-22T03:54:56.871Z,83.33
2024-04-22T03:55:58.467Z,83.04
2024-04-22T03:57:02.727Z,82.63
2024-04-22T03:58:04.744Z,82.27
2024-04-22T03:59:06.394Z,82.29
2024-04-22T04:00:08.602Z,81.49
2024-04-22T04:01:13.685Z,81.36
2024-04-22T04:02:15.411Z,80.76
2024-04-22T04:03:17.042Z,80.48
2024-04-22T04:04:19.333Z,79.74
2024-04-22T04:05:23.091Z,79.88
2024-04-22T04:06:25.038Z,79.46
2024-04-22T04:07:26.706Z,79.65
2024-04-22T04:08:28.340Z,79.41
2024-04-22T04:09:29.968Z,80.55
2024-04-22T04:10:31.607Z,81.87
2024-04-22T04:11:33.487Z,83.01
2024-04-22T04:12:37.761Z,84.91
2024-04-22T04:13:40.394Z,86.27
2024-04-22T04:14:42.288Z,87.01
2024-04-22T04:15:43.904Z,87.06
2024-04-22T04:16:46.022Z,87.11
2024-04-22T04:17:47.743Z,87.10
2024-04-22T04:18:49.382Z,86.98
2024-04-22T04:19:51.049Z,86.90
2024-04-22T04:20:52.736Z,86.65
2024-04-22T04:21:55.024Z,86.59
2024-04-22T04:22:56.658Z,86.89
2024-04-22T04:23:58.336Z,86.60
2024-04-22T04:24:59.972Z,87.17
2024-04-22T04:26:01.708Z,87.06
2024-04-22T04:27:03.552Z,86.99
2024-04-22T04:28:08.173Z,86.95
2024-04-22T04:29:09.833Z,86.09
2024-04-22T04:30:11.793Z,85.87
2024-04-22T04:31:13.428Z,85.13
2024-04-22T04:32:15.040Z,84.51
2024-04-22T04:33:16.693Z,83.62
2024-04-22T04:34:18.386Z,84.00
2024-04-22T04:35:20.055Z,83.84
2024-04-22T04:36:21.723Z,83.44
2024-04-22T04:37:23.339Z,83.28
2024-04-22T04:38:25.073Z,83.19
2024-04-22T04:39:26.991Z,83.44
2024-04-22T04:40:28.618Z,83.24
2024-04-22T04:41:30.274Z,82.93
2024-04-22T04:42:32.217Z,82.86
2024-04-22T04:43:36.503Z,81.97
2024-04-22T04:44:38.243Z,81.75
2024-04-22T04:45:39.877Z,81.52
2024-04-22T04:46:41.599Z,81.67
2024-04-22T04:47:43.347Z,81.95
2024-04-22T04:48:45.010Z,82.40
2024-04-22T04:49:47.035Z,83.21
2024-04-22T04:50:49.527Z,84.23
2024-04-22T04:51:51.180Z,84.46
2024-04-22T04:52:52.781Z,83.83
2024-04-22T04:53:54.404Z,83.06
2024-04-22T04:54:56.029Z,82.96
2024-04-22T04:55:57.706Z,83.37
2024-04-22T04:56:59.334Z,83.46
2024-04-22T04:58:00.970Z,83.60
2024-04-22T04:59:05.180Z,83.63
2024-04-22T05:00:08.456Z,83.91
2024-04-22T05:01:10.242Z,84.28
2024-04-22T05:02:12.006Z,84.02
2024-04-22T05:03:13.702Z,83.87
2024-04-22T05:04:15.373Z,83.84
2024-04-22T05:05:17.237Z,83.80
2024-04-22T05:06:18.878Z,83.26
2024-04-22T05:07:20.535Z,83.37
2024-04-22T05:08:22.165Z,83.44
2024-04-22T05:09:23.844Z,83.18
2024-04-22T05:10:25.912Z,82.60
2024-04-22T05:11:27.577Z,82.22
2024-04-22T05:12:29.270Z,82.21
2024-04-22T05:13:30.950Z,82.96
2024-04-22T05:14:35.221Z,83.01
2024-04-22T05:15:37.076Z,82.78
2024-04-22T05:16:38.743Z,82.91
2024-04-22T05:17:40.429Z,82.37
2024-04-22T05:18:44.206Z,82.06
2024-04-22T05:19:46.082Z,81.94
2024-04-22T05:20:47.759Z,81.71
2024-04-22T05:21:49.376Z,81.68
2024-04-22T05:22:51.076Z,81.44
2024-04-22T05:23:52.715Z,81.02
2024-04-22T05:24:54.343Z,80.89
2024-04-22T05:25:56.065Z,80.74
2024-04-22T05:26:57.749Z,80.38
2024-04-22T05:27:59.375Z,80.21
2024-04-22T05:29:01.043Z,80.32
2024-04-22T05:30:06.197Z,80.46
2024-04-22T05:31:07.860Z,80.57
2024-04-22T05:32:09.838Z,80.14
2024-04-22T05:33:11.562Z,80.80
2024-04-22T05:34:13.276Z,81.11
2024-04-22T05:35:14.981Z,81.32
2024-04-22T05:36:16.669Z,81.27
2024-04-22T05:37:19.384Z,81.13
2024-04-22T05:38:21.118Z,80.85
2024-04-22T05:39:22.826Z,80.24
2024-04-22T05:40:24.514Z,79.56
2024-04-22T05:41:26.163Z,79.78
2024-04-22T05:42:27.850Z,79.61
2024-04-22T05:43:29.552Z,79.09
2024-04-22T05:44:31.239Z,78.76
2024-04-22T05:45:35.541Z,78.94
2024-04-22T05:46:37.341Z,79.09
2024-04-22T05:47:39.210Z,79.26
2024-04-22T05:48:41.006Z,79.12
2024-04-22T05:49:42.770Z,79.33
2024-04-22T05:50:44.430Z,79.85
2024-04-22T05:51:46.045Z,80.60
2024-04-22T05:52:47.723Z,80.67
2024-04-22T05:53:49.379Z,80.28
2024-04-22T05:54:51.000Z,80.06
2024-04-22T05:55:52.793Z,80.25
2024-04-22T05:56:54.438Z,80.13
2024-04-22T05:57:56.077Z,79.85
2024-04-22T05:58:57.668Z,79.25
2024-04-22T05:59:59.279Z,78.49
2024-04-22T06:01:03.811Z,78.81
2024-04-22T06:02:05.508Z,78.47
2024-04-22T06:03:07.222Z,78.45
2024-04-22T06:04:09.273Z,77.77
2024-04-22T06:05:11.019Z,77.78
2024-04-22T06:06:12.653Z,77.60
2024-04-22T06:07:14.344Z,77.01
2024-04-22T06:08:16.023Z,76.14
2024-04-22T06:09:17.725Z,75.76
2024-04-22T06:10:19.449Z,75.60
2024-04-22T06:11:21.131Z,75.49
2024-04-22T06:12:22.859Z,75.65
2024-04-22T06:13:24.495Z,74.74
2024-04-22T06:14:26.173Z,74.92
2024-04-22T06:15:27.852Z,74.75
2024-04-22T06:16:32.360Z,72.63
2024-04-22T06:17:37.107Z,73.51
2024-04-22T06:18:39.113Z,73.29
2024-04-22T06:19:41.077Z,73.34
2024-04-22T06:20:42.844Z,73.32
2024-04-22T06:21:44.485Z,72.89
2024-04-22T06:22:46.223Z,72.75
2024-04-22T06:23:47.883Z,72.16
2024-04-22T06:24:49.562Z,72.06
2024-04-22T06:25:51.314Z,71.80
2024-04-22T06:26:53.043Z,71.54
2024-04-22T06:27:54.660Z,70.94
2024-04-22T06:28:56.254Z,70.59
2024-04-22T06:29:58.017Z,70.38
2024-04-22T06:30:59.971Z,70.33
2024-04-22T06:32:04.843Z,70.45
2024-04-22T06:33:06.552Z,70.20
2024-04-22T06:34:08.253Z,70.21
2024-04-22T06:35:09.901Z,70.00
2024-04-22T06:36:11.809Z,69.82
2024-04-22T06:37:13.476Z,69.41
2024-04-22T06:38:15.099Z,68.91
2024-04-22T06:39:16.751Z,68.60
2024-04-22T06:40:18.569Z,68.01
2024-04-22T06:41:20.196Z,67.48
2024-04-22T06:42:22.164Z,67.51
2024-04-22T06:43:23.921Z,67.74
2024-04-22T06:44:25.590Z,68.12
2024-04-22T06:45:27.271Z,66.99
2024-04-22T06:46:28.954Z,68.02
2024-04-22T06:47:33.336Z,68.08
2024-04-22T06:48:35.044Z,67.69
2024-04-22T06:49:36.733Z,66.69
2024-04-22T06:50:38.383Z,67.26
2024-04-22T06:51:39.985Z,67.02
2024-04-22T06:52:41.625Z,66.88
2024-04-22T06:53:43.282Z,66.50
2024-04-22T06:54:44.904Z,66.04
2024-04-22T06:55:46.699Z,65.61
2024-04-22T06:56:48.416Z,65.60
2024-04-22T06:57:50.351Z,65.22
2024-04-22T06:58:52.049Z,64.35
2024-04-22T06:59:53.750Z,65.17
2024-04-22T07:00:55.471Z,66.62
2024-04-22T07:01:57.145Z,66.35
2024-04-22T07:03:01.519Z,66.49
2024-04-22T07:04:03.449Z,65.61
2024-04-22T07:05:05.531Z,66.48
2024-04-22T07:06:07.509Z,65.52
2024-04-22T07:07:09.184Z,65.50
2024-04-22T07:08:10.821Z,64.75
2024-04-22T07:09:12.465Z,64.56
2024-04-22T07:10:14.123Z,64.57
2024-04-22T07:11:15.799Z,64.78
2024-04-22T07:12:17.446Z,63.07
2024-04-22T07:13:19.188Z,62.67
2024-04-22T07:14:20.813Z,63.38
2024-04-22T07:15:22.691Z,63.23
2024-04-22T07:16:24.360Z,62.56
2024-04-22T07:17:26.068Z,62.42
2024-04-22T07:18:30.311Z,62.11
2024-04-22T07:19:32.065Z,62.05
2024-04-22T07:20:33.758Z,60.78
2024-04-22T07:21:35.610Z,61.12
2024-04-22T07:22:37.222Z,60.93
2024-04-22T07:23:38.845Z,60.66
2024-04-22T07:24:54.203Z,60.43
2024-04-22T07:26:03.586Z,60.54
2024-04-22T07:27:10.921Z,60.68
2024-04-22T07:28:18.376Z,60.07
2024-04-22T07:29:20.563Z,60.13
2024-04-22T07:30:23.182Z,59.75
2024-04-22T07:31:25.371Z,58.88
2024-04-22T07:32:27.654Z,57.70
2024-04-22T07:33:32.879Z,55.92
2024-04-22T07:34:35.118Z,55.68
2024-04-22T07:35:39.313Z,55.48
2024-04-22T07:36:46.693Z,55.03
2024-04-22T07:37:48.991Z,55.79
2024-04-22T07:38:53.077Z,55.90
2024-04-22T07:40:00.682Z,55.43
2024-04-22T07:41:02.801Z,55.94
2024-04-22T07:42:04.650Z,56.10
2024-04-22T07:43:06.322Z,55.92
2024-04-22T07:44:08.035Z,55.39
2024-04-22T07:45:10.577Z,54.54
2024-04-22T07:46:12.237Z,54.76
2024-04-22T07:47:13.943Z,54.34
2024-04-22T07:48:15.647Z,54.01
2024-04-22T07:49:20.004Z,54.04
2024-04-22T07:50:21.861Z,54.83
2024-04-22T07:51:23.606Z,56.39
2024-04-22T07:52:25.860Z,57.12
2024-04-22T07:53:28.034Z,57.89
2024-04-22T07:54:30.195Z,58.89
2024-04-22T07:55:32.717Z,58.80
2024-04-22T07:56:35.021Z,57.32
2024-04-22T07:57:40.468Z,58.04
2024-04-22T07:58:43.243Z,58.14
2024-04-22T07:59:45.358Z,57.84
2024-04-22T08:00:47.466Z,57.23
2024-04-22T08:01:49.832Z,58.83
2024-04-22T08:02:52.146Z,58.07
2024-04-22T08:03:54.392Z,58.21
2024-04-22T08:04:59.292Z,57.08
2024-04-22T08:06:05.166Z,59.02
2024-04-22T08:07:09.767Z,56.52
2024-04-22T08:08:12.792Z,56.96
2024-04-22T08:09:14.443Z,56.09
2024-04-22T08:10:16.345Z,57.46
2024-04-22T08:11:19.663Z,56.85
2024-04-22T08:12:21.394Z,56.52
2024-04-22T08:13:23.091Z,56.07
2024-04-22T08:14:24.785Z,54.66
2024-04-22T08:15:26.519Z,55.37
2024-04-22T08:16:28.275Z,55.30
2024-04-22T08:17:30.143Z,56.41
2024-04-22T08:18:31.995Z,55.99
2024-04-22T08:19:33.645Z,54.43
2024-04-22T08:20:37.850Z,53.55
2024-04-22T08:21:39.483Z,53.53
2024-04-22T08:22:41.183Z,53.72
2024-04-22T08:23:43.313Z,53.95
2024-04-22T08:24:44.965Z,53.14
2024-04-22T08:25:46.650Z,52.85
2024-04-22T08:26:48.311Z,52.90
2024-04-22T08:27:49.939Z,52.97
2024-04-22T08:28:51.655Z,52.12
2024-04-22T08:29:53.609Z,51.56
2024-04-22T08:31:00.542Z,52.06
2024-04-22T08:32:02.175Z,53.04
2024-04-22T08:33:04.335Z,51.82
2024-04-22T08:34:06.144Z,50.75
2024-04-22T08:35:07.776Z,52.50
2024-04-22T08:36:12.056Z,51.65
2024-04-22T08:37:15.281Z,51.29
2024-04-22T08:38:16.936Z,50.95
2024-04-22T08:39:21.533Z,51.67
2024-04-22T08:40:26.706Z,49.76
2024-04-22T08:41:28.781Z,49.40
2024-04-22T08:42:30.537Z,48.66
2024-04-22T08:43:32.323Z,50.79
2024-04-22T08:44:34.019Z,49.09
2024-04-22T08:45:35.759Z,49.74
2024-04-22T08:46:37.407Z,49.92
2024-04-22T08:47:39.390Z,49.67
2024-04-22T08:48:41.357Z,48.93
2024-04-22T08:49:43.086Z,49.40
2024-04-22T08:50:48.135Z,48.54
2024-04-22T08:51:53.115Z,47.86
2024-04-22T08:52:56.764Z,49.48
2024-04-22T08:53:59.514Z,50.18
2024-04-22T08:55:01.195Z,49.53
2024-04-22T08:56:03.371Z,48.08
2024-04-22T08:57:06.103Z,49.71
2024-04-22T08:58:08.629Z,50.08
2024-04-22T08:59:18.581Z,48.94
2024-04-22T09:00:27.299Z,49.08
2024-04-22T09:01:29.544Z,49.77
2024-04-22T09:02:31.217Z,49.94
2024-04-22T09:03:32.827Z,48.16
2024-04-22T09:04:34.708Z,47.70
2024-04-22T09:05:37.099Z,49.74
2024-04-22T09:06:39.066Z,49.13
2024-04-22T09:07:50.943Z,51.34
2024-04-22T09:08:52.602Z,50.39
2024-04-22T09:10:14.697Z,50.78
2024-04-22T09:11:46.027Z,50.68
2024-04-22T09:12:39.589Z,49.33
2024-04-22T09:13:41.468Z,49.14
2024-04-22T09:14:43.331Z,48.01
2024-04-22T09:15:45.133Z,48.53
2024-04-22T09:16:47.159Z,47.06
2024-04-22T09:17:49.327Z,47.07
2024-04-22T09:18:51.196Z,46.57
2024-04-22T09:19:52.888Z,46.91
2024-04-22T09:21:07.023Z,47.67
2024-04-22T09:22:09.483Z,48.71
2024-04-22T09:23:13.802Z,50.05
2024-04-22T09:24:15.799Z,51.11
2024-04-22T09:25:18.341Z,49.49
2024-04-22T09:26:20.220Z,47.88
2024-04-22T09:27:22.637Z,47.12
2024-04-22T09:28:28.802Z,47.96
2024-04-22T09:29:35.477Z,48.66
2024-04-22T09:30:39.214Z,50.14
2024-04-22T09:31:43.363Z,51.29
2024-04-22T09:32:46.532Z,49.92
2024-04-22T09:33:49.517Z,48.57
2024-04-22T09:34:54.776Z,49.79
2024-04-22T09:35:58.989Z,51.63
2024-04-22T09:37:01.658Z,53.63
2024-04-22T09:38:05.037Z,52.92
2024-04-22T09:39:11.624Z,54.49
2024-04-22T09:40:15.237Z,55.65
2024-04-22T09:41:19.818Z,56.33
2024-04-22T09:42:21.891Z,58.12
2024-04-22T09:43:24.357Z,59.13
2024-04-22T09:44:27.932Z,59.56
2024-04-22T09:45:29.654Z,60.36
2024-04-22T09:46:31.999Z,61.76
2024-04-22T09:47:35.431Z,60.93
2024-04-22T09:48:37.834Z,62.33
2024-04-22T09:49:41.159Z,62.10
2024-04-22T09:50:42.872Z,61.85
2024-04-22T09:51:46.283Z,63.32
2024-04-22T09:52:48.906Z,62.99
2024-04-22T09:53:52.075Z,62.04
2024-04-22T09:54:56.586Z,61.23
2024-04-22T09:56:04.526Z,62.60
2024-04-22T09:57:07.468Z,62.00
2024-04-22T09:58:10.725Z,64.40
2024-04-22T09:59:14.292Z,63.43
2024-04-22T10:00:16.862Z,63.31
2024-04-22T10:01:18.824Z,64.39
2024-04-22T10:02:20.913Z,64.71
2024-04-22T10:03:22.812Z,65.03
2024-04-22T10:04:25.024Z,64.61
2024-04-22T10:05:30.597Z,64.37
2024-04-22T10:06:33.869Z,62.37
2024-04-22T10:07:35.650Z,62.83
2024-04-22T10:08:38.194Z,63.35
2024-04-22T10:09:39.927Z,61.79
2024-04-22T10:10:44.612Z,60.06
2024-04-22T10:11:48.134Z,58.40
2024-04-22T10:12:50.264Z,59.36
2024-04-22T10:13:52.141Z,57.55
2024-04-22T10:15:04.556Z,58.22
2024-04-22T10:16:06.927Z,57.63
2024-04-22T10:17:08.794Z,54.78
2024-04-22T10:18:12.109Z,55.35
2024-04-22T10:19:14.387Z,55.31
2024-04-22T10:20:16.441Z,52.53
2024-04-22T10:21:20.209Z,52.45
2024-04-22T10:22:24.748Z,55.27
2024-04-22T10:23:26.690Z,56.93
2024-04-22T10:24:30.249Z,58.08
2024-04-22T10:25:32.005Z,58.44
2024-04-22T10:26:47.698Z,57.62
2024-04-22T10:27:54.071Z,55.01
2024-04-22T10:28:55.836Z,54.22
2024-04-22T10:29:58.029Z,52.01
2024-04-22T10:30:59.696Z,51.68
2024-04-22T10:32:01.516Z,50.57
2024-04-22T10:33:03.704Z,50.96
2024-04-22T10:34:07.393Z,53.19
2024-04-22T10:35:09.065Z,53.74
2024-04-22T10:36:10.788Z,55.52
2024-04-22T10:37:12.994Z,55.63
2024-04-22T10:38:14.710Z,56.04
2024-04-22T10:39:16.361Z,51.42
2024-04-22T10:40:18.090Z,51.21
2024-04-22T10:41:19.932Z,48.99
2024-04-22T10:42:24.170Z,47.26
2024-04-22T10:43:25.942Z,45.91
2024-04-22T10:44:27.864Z,46.09
2024-04-22T10:45:29.553Z,47.63
2024-04-22T10:46:31.274Z,47.85
2024-04-22T10:47:34.025Z,50.11
2024-04-22T10:48:36.934Z,48.77
2024-04-22T10:49:39.578Z,48.43
2024-04-22T10:50:41.335Z,46.38
2024-04-22T10:51:43.047Z,46.26
2024-04-22T10:52:44.990Z,44.76
2024-04-22T10:53:46.662Z,45.45
2024-04-22T10:54:52.729Z,47.73
2024-04-22T10:55:55.522Z,48.44
2024-04-22T10:56:57.609Z,50.71
2024-04-22T10:58:03.069Z,52.52
2024-04-22T10:59:04.924Z,51.37
2024-04-22T11:00:09.193Z,52.36
2024-04-22T11:01:12.747Z,51.28
2024-04-22T11:02:16.576Z,51.45
2024-04-22T11:03:18.436Z,51.73
2024-04-22T11:04:20.215Z,51.01
2024-04-22T11:05:22.464Z,51.93
2024-04-22T11:06:24.545Z,54.42
2024-04-22T11:07:26.292Z,54.81
2024-04-22T11:08:29.597Z,61.29
2024-04-22T11:09:32.950Z,64.99
2024-04-22T11:10:41.361Z,66.53
2024-04-22T11:11:54.608Z,68.83
2024-04-22T11:12:56.864Z,70.94
2024-04-22T11:14:01.274Z,73.24
2024-04-22T11:15:03.064Z,73.86
2024-04-22T11:16:07.699Z,73.57
2024-04-22T11:17:09.478Z,75.04
2024-04-22T11:18:11.117Z,73.65
2024-04-22T11:19:12.869Z,74.91
2024-04-22T11:20:14.751Z,74.68
2024-04-22T11:21:16.396Z,75.77
2024-04-22T11:22:18.129Z,78.31
2024-04-22T11:23:19.868Z,78.21
2024-04-22T11:24:21.714Z,79.10
2024-04-22T11:25:23.358Z,78.75
2024-04-22T11:26:26.403Z,79.72
2024-04-22T11:27:28.065Z,80.22
2024-04-22T11:28:30.935Z,78.10
2024-04-22T11:29:35.500Z,80.30
2024-04-22T11:30:40.351Z,81.00
2024-04-22T11:31:43.118Z,79.26
2024-04-22T11:32:44.829Z,79.96
2024-04-22T11:33:47.576Z,79.45
2024-04-22T11:34:49.340Z,79.39
2024-04-22T11:35:51.285Z,79.43
2024-04-22T11:36:56.681Z,78.43
2024-04-22T11:37:58.331Z,79.47
2024-04-22T11:39:08.871Z,78.87
2024-04-22T11:40:11.043Z,78.39
2024-04-22T11:41:12.695Z,78.95
2024-04-22T11:42:14.381Z,77.69
2024-04-22T11:43:16.041Z,77.53
2024-04-22T11:44:17.951Z,76.55
2024-04-22T11:45:22.216Z,74.32
2024-04-22T11:46:23.825Z,72.16
2024-04-22T11:47:25.615Z,75.70
2024-04-22T11:48:27.335Z,73.81
2024-04-22T11:49:29.055Z,71.71
2024-04-22T11:50:30.980Z,71.77
2024-04-22T11:51:32.779Z,68.71
2024-04-22T11:52:34.575Z,66.70
2024-04-22T11:53:36.367Z,68.04
2024-04-22T11:54:38.040Z,69.05
2024-04-22T11:55:39.745Z,68.24
2024-04-22T11:56:41.394Z,68.46
2024-04-22T11:57:43.287Z,66.35
2024-04-22T11:58:44.962Z,62.89
2024-04-22T11:59:46.571Z,63.71
2024-04-22T12:00:50.767Z,64.16
2024-04-22T12:01:52.528Z,62.92
2024-04-22T12:02:54.204Z,58.01
2024-04-22T12:03:55.877Z,57.69
2024-04-22T12:04:57.639Z,55.70
2024-04-22T12:05:59.392Z,55.28
2024-04-22T12:07:01.053Z,56.49
2024-04-22T12:08:02.670Z,57.04
2024-04-22T12:09:06.138Z,52.76
2024-04-22T12:10:09.391Z,54.55
2024-04-22T12:11:11.736Z,57.25
2024-04-22T12:12:13.356Z,58.42
2024-04-22T12:13:15.031Z,55.23
2024-04-22T12:14:16.666Z,53.09
2024-04-22T12:15:18.365Z,52.94
2024-04-22T12:16:23.064Z,55.71
2024-04-22T12:17:24.783Z,54.70
2024-04-22T12:18:26.581Z,53.65
2024-04-22T12:19:28.479Z,54.61
2024-04-22T12:20:30.130Z,53.38
2024-04-22T12:21:31.810Z,53.67
2024-04-22T12:22:33.502Z,53.57
2024-04-22T12:23:35.267Z,52.91
2024-04-22T12:24:36.926Z,52.18
2024-04-22T12:25:42.158Z,54.34
2024-04-22T12:26:44.096Z,55.64
2024-04-22T12:27:47.022Z,57.12
2024-04-22T12:28:52.391Z,60.31
2024-04-22T12:29:54.083Z,59.77
2024-04-22T12:30:58.620Z,60.70
2024-04-22T12:32:04.935Z,60.36
2024-04-22T12:33:07.099Z,60.51
2024-04-22T12:34:12.920Z,61.75
2024-04-22T12:35:16.532Z,61.66
2024-04-22T12:36:18.258Z,62.34
2024-04-22T12:37:21.340Z,62.84
2024-04-22T12:38:23.129Z,64.34
2024-04-22T12:39:25.145Z,63.44
2024-04-22T12:40:27.859Z,63.89
2024-04-22T12:41:32.674Z,65.97
2024-04-22T12:42:35.003Z,65.08
2024-04-22T12:43:37.308Z,63.64
2024-04-22T12:44:43.091Z,62.09
2024-04-22T12:45:44.809Z,59.69
2024-04-22T12:46:46.562Z,58.69
2024-04-22T12:47:50.964Z,59.30
2024-04-22T12:48:52.997Z,58.95
2024-04-22T12:49:55.165Z,59.66
2024-04-22T12:50:58.249Z,59.94
2024-04-22T12:52:00.499Z,60.68
2024-04-22T12:53:02.484Z,62.58
2024-04-22T12:54:04.377Z,63.53
2024-04-22T12:55:06.402Z,64.34
2024-04-22T12:56:08.265Z,66.17
2024-04-22T12:57:09.953Z,68.88
2024-04-22T12:58:11.645Z,67.52
2024-04-22T12:59:13.315Z,67.11
2024-04-22T13:00:15.251Z,65.65
2024-04-22T13:01:17.012Z,66.36
2024-04-22T13:02:18.849Z,69.49
2024-04-22T13:03:23.190Z,71.00
2024-04-22T13:04:24.994Z,68.41
2024-04-22T13:05:26.739Z,71.07
2024-04-22T13:06:28.410Z,70.17
2024-04-22T13:07:30.104Z,71.94
2024-04-22T13:08:31.910Z,68.49
2024-04-22T13:09:33.562Z,69.58
2024-04-22T13:10:35.272Z,69.45
2024-04-22T13:11:37.122Z,68.66
2024-04-22T13:12:38.884Z,67.16
2024-04-22T13:13:41.572Z,65.61
2024-04-22T13:14:43.321Z,65.14
2024-04-22T13:15:44.991Z,64.30
2024-04-22T13:16:46.744Z,62.31
2024-04-22T13:17:48.712Z,61.06
2024-04-22T13:18:53.520Z,61.53
2024-04-22T13:19:56.617Z,57.61
2024-04-22T13:20:58.419Z,58.89
2024-04-22T13:22:00.191Z,59.01
2024-04-22T13:23:04.925Z,60.39
2024-04-22T13:24:08.413Z,59.75